createdAt,value
2018-11-03T14:28:05.858Z,21.43
2018-11-03T14:30:31.791Z,21.37
2018-11-03T14:32:57.809Z,21.30
2018-11-03T14:35:23.816Z,21.27
2018-11-03T14:37:49.801Z,21.22
2018-11-03T14:40:15.836Z,21.19
2018-11-03T14:42:41.831Z,21.17
2018-11-03T14:45:07.880Z,21.20
2018-11-03T14:47:33.863Z,21.20
2018-11-03T14:49:59.846Z,21.22
2018-11-03T14:52:25.870Z,21.22
2018-11-03T14:54:51.844Z,21.22
2018-11-03T14:57:17.849Z,21.22
2018-11-03T14:59:43.838Z,21.22
2018-11-03T15:02:09.840Z,21.23
2018-11-03T15:04:35.858Z,21.25
2018-11-03T15:07:01.863Z,21.25
2018-11-03T15:09:27.875Z,21.27
2018-11-03T15:11:53.887Z,21.27
2018-11-03T15:14:20.063Z,21.26
2018-11-03T15:16:45.950Z,21.27
2018-11-03T15:19:11.952Z,21.26
2018-11-03T15:21:37.930Z,21.30
2018-11-03T15:24:03.942Z,21.32
2018-11-03T15:26:29.953Z,21.30
2018-11-03T15:28:55.961Z,21.29
2018-11-03T15:31:21.967Z,21.30
2018-11-03T15:33:47.951Z,21.29
2018-11-03T15:36:13.943Z,21.28
2018-11-03T15:38:39.945Z,21.30
2018-11-03T15:41:05.956Z,21.32
2018-11-03T15:43:32.000Z,21.31
2018-11-03T15:45:58.059Z,21.31
2018-11-03T15:48:24.047Z,21.29
2018-11-03T15:50:50.060Z,21.29
2018-11-03T15:53:16.043Z,21.28
2018-11-03T15:55:42.061Z,21.24
2018-11-03T15:58:08.015Z,21.19
2018-11-03T16:00:34.041Z,21.19
2018-11-03T16:03:00.049Z,21.20
2018-11-03T16:05:26.070Z,21.23
2018-11-03T16:07:52.057Z,21.26
2018-11-03T16:10:18.091Z,21.25
2018-11-03T16:12:44.109Z,21.24
2018-11-03T16:15:10.075Z,21.25
2018-11-03T16:17:36.142Z,21.25
2018-11-03T16:20:02.166Z,21.26
2018-11-03T16:22:28.276Z,21.26
2018-11-03T16:24:54.298Z,21.25
2018-11-03T16:27:20.285Z,21.27
2018-11-03T16:29:46.269Z,21.30
2018-11-03T16:32:12.316Z,21.27
2018-11-03T16:34:38.270Z,21.29
2018-11-03T16:37:04.314Z,21.32
2018-11-03T16:39:30.307Z,21.29
2018-11-03T16:41:56.300Z,21.26
2018-11-03T16:44:22.283Z,21.26
2018-11-03T16:46:48.297Z,21.26
2018-11-03T16:49:14.333Z,21.26
2018-11-03T16:51:40.400Z,21.27
2018-11-03T16:54:06.387Z,21.25
2018-11-03T16:56:32.382Z,21.28
2018-11-03T16:58:58.390Z,21.27
2018-11-03T17:01:24.399Z,21.28
2018-11-03T17:03:51.514Z,21.28
2018-11-03T17:06:17.533Z,21.28
2018-11-03T17:08:43.551Z,21.26
2018-11-03T17:11:09.616Z,21.26
2018-11-03T17:13:35.633Z,21.27
2018-11-03T17:16:01.622Z,21.28
2018-11-03T17:18:27.671Z,21.27
2018-11-03T17:20:53.660Z,21.26
2018-11-03T17:23:19.746Z,21.26
2018-11-03T17:25:45.642Z,21.31
2018-11-03T17:28:11.627Z,21.29
2018-11-03T17:30:37.659Z,21.30
2018-11-03T17:33:03.659Z,21.30
2018-11-03T17:35:29.688Z,21.32
2018-11-03T17:37:55.696Z,21.34
2018-11-03T17:40:21.707Z,21.34
2018-11-03T17:42:47.723Z,21.38
2018-11-03T17:45:13.718Z,21.34
2018-11-03T17:47:39.737Z,21.32
2018-11-03T17:50:05.755Z,21.32
2018-11-03T17:52:31.780Z,21.30
2018-11-03T17:54:57.868Z,21.33
2018-11-03T17:57:23.756Z,21.31
2018-11-03T17:59:49.808Z,21.30
2018-11-03T18:02:16.078Z,21.30
2018-11-03T18:04:47.282Z,21.29
2018-11-03T18:07:13.318Z,21.30
2018-11-03T18:09:39.309Z,21.31
2018-11-03T18:12:05.339Z,21.30
2018-11-03T18:14:31.360Z,21.30
2018-11-03T18:16:57.387Z,21.29
2018-11-03T18:19:23.383Z,21.29
2018-11-03T18:21:49.426Z,21.31
2018-11-03T18:24:15.414Z,21.34
2018-11-03T18:26:41.658Z,21.34
2018-11-03T18:29:14.213Z,21.36
2018-11-03T18:31:40.221Z,21.35
2018-11-03T18:34:06.704Z,21.32
2018-11-03T18:36:32.864Z,21.29
2018-11-03T18:39:06.950Z,21.28
2018-11-03T18:41:32.976Z,21.28
2018-11-03T18:43:59.750Z,21.28
2018-11-03T18:46:27.189Z,21.26
2018-11-03T18:48:53.164Z,21.26
2018-11-03T18:51:21.675Z,21.24
2018-11-03T18:53:47.953Z,21.23
2018-11-03T18:56:16.929Z,21.24
2018-11-03T18:58:43.464Z,21.30
2018-11-03T19:01:09.639Z,21.31
2018-11-03T19:03:35.720Z,21.29
2018-11-03T19:06:01.888Z,21.27
2018-11-03T19:08:28.386Z,21.26
2018-11-03T19:10:54.509Z,21.27
2018-11-03T19:13:20.516Z,21.25
2018-11-03T19:15:46.904Z,21.23
2018-11-03T19:18:12.897Z,21.23
2018-11-03T19:20:39.604Z,21.21
2018-11-03T19:23:05.670Z,21.20
2018-11-03T19:25:31.720Z,21.21
2018-11-03T19:27:58.330Z,21.21
2018-11-03T19:30:24.332Z,21.19
2018-11-03T19:32:50.278Z,21.19
2018-11-03T19:35:16.290Z,21.19
2018-11-03T19:37:42.280Z,21.18
2018-11-03T19:40:08.291Z,21.18
2018-11-03T19:42:34.277Z,21.18
2018-11-03T19:45:00.353Z,21.16
2018-11-03T19:47:26.364Z,21.16
2018-11-03T19:49:52.377Z,21.15
2018-11-03T19:52:18.363Z,21.15
2018-11-03T19:54:44.592Z,21.13
2018-11-03T19:57:10.577Z,21.13
2018-11-03T19:59:36.654Z,21.13
2018-11-03T20:02:02.771Z,21.13
2018-11-03T20:04:28.757Z,21.13
2018-11-03T20:06:54.780Z,21.12
2018-11-03T20:09:20.761Z,21.12
2018-11-03T20:11:46.778Z,21.16
2018-11-03T20:14:12.772Z,21.14
2018-11-03T20:16:38.761Z,21.14
2018-11-03T20:19:04.787Z,21.13
2018-11-03T20:21:30.828Z,21.12
2018-11-03T20:23:56.776Z,21.13
2018-11-03T20:26:22.863Z,21.11
2018-11-03T20:28:48.841Z,21.12
2018-11-03T20:31:14.867Z,21.11
2018-11-03T20:33:40.847Z,21.13
2018-11-03T20:36:06.834Z,21.13
2018-11-03T20:38:32.826Z,21.11
2018-11-03T20:40:59.132Z,21.11
2018-11-03T20:43:25.122Z,21.10
2018-11-03T20:45:51.138Z,21.11
2018-11-03T20:48:17.145Z,21.11
2018-11-03T20:50:43.138Z,21.12
2018-11-03T20:53:09.147Z,21.11
2018-11-03T20:55:35.161Z,21.10
2018-11-03T20:58:01.166Z,21.10
2018-11-03T21:00:27.157Z,21.10
2018-11-03T21:02:53.166Z,21.10
2018-11-03T21:05:19.162Z,21.11
2018-11-03T21:07:45.149Z,21.10
2018-11-03T21:10:14.970Z,21.08
2018-11-03T21:12:40.955Z,21.09
2018-11-03T21:15:06.955Z,21.09
2018-11-03T21:17:33.006Z,21.09
2018-11-03T21:19:59.004Z,21.21
2018-11-03T21:22:25.024Z,21.30
2018-11-03T21:24:51.005Z,21.19
2018-11-03T21:27:16.985Z,21.15
2018-11-03T21:29:43.016Z,21.13
2018-11-03T21:32:09.096Z,21.11
2018-11-03T21:34:35.062Z,21.10
2018-11-03T21:37:01.065Z,21.09
2018-11-03T21:39:27.117Z,21.12
2018-11-03T21:41:53.125Z,21.17
2018-11-03T21:44:19.283Z,21.15
2018-11-03T21:46:45.291Z,21.13
2018-11-03T21:49:12.868Z,21.13
2018-11-03T21:51:38.877Z,21.11
2018-11-03T21:54:04.908Z,21.12
2018-11-03T21:56:30.919Z,21.11
2018-11-03T21:58:56.933Z,21.11
2018-11-03T22:01:22.979Z,21.11
2018-11-03T22:03:51.686Z,21.11
2018-11-03T22:06:17.776Z,21.18
2018-11-03T22:08:43.720Z,21.27
2018-11-03T22:11:09.704Z,21.34
2018-11-03T22:13:35.723Z,21.36
2018-11-03T22:16:01.776Z,21.34
2018-11-03T22:18:27.695Z,21.35
2018-11-03T22:20:53.680Z,21.36
2018-11-03T22:23:19.729Z,21.37
2018-11-03T22:25:45.743Z,21.40
2018-11-03T22:28:11.766Z,21.37
2018-11-03T22:30:37.716Z,21.35
2018-11-03T22:33:03.706Z,21.29
2018-11-03T22:35:29.712Z,21.25
2018-11-03T22:37:55.721Z,21.19
2018-11-03T22:40:21.731Z,21.16
2018-11-03T22:42:47.744Z,21.11
2018-11-03T22:45:13.734Z,21.10
2018-11-03T22:47:39.739Z,21.09
2018-11-03T22:50:05.755Z,21.07
2018-11-03T22:52:31.793Z,21.05
2018-11-03T22:54:57.774Z,21.05
2018-11-03T22:57:23.790Z,21.04
2018-11-03T22:59:49.785Z,21.03
2018-11-03T23:02:15.793Z,21.01
2018-11-03T23:04:41.776Z,21.00
2018-11-03T23:07:07.761Z,21.00
2018-11-03T23:09:33.783Z,20.99
2018-11-03T23:11:59.773Z,20.97
2018-11-03T23:14:25.756Z,20.98
2018-11-03T23:16:51.775Z,20.97
2018-11-03T23:19:17.819Z,20.96
2018-11-03T23:21:43.760Z,20.96
2018-11-03T23:24:09.774Z,20.96
2018-11-03T23:26:35.778Z,20.95
2018-11-03T23:29:01.799Z,20.93
2018-11-03T23:31:27.805Z,20.94
2018-11-03T23:33:53.812Z,20.92
2018-11-03T23:36:19.801Z,20.91
2018-11-03T23:38:45.779Z,20.92
2018-11-03T23:41:11.826Z,20.91
2018-11-03T23:43:37.834Z,20.90
2018-11-03T23:46:03.816Z,20.91
2018-11-03T23:48:29.856Z,20.90
2018-11-03T23:50:55.870Z,20.89
2018-11-03T23:53:21.934Z,20.89
2018-11-03T23:55:47.880Z,20.87
2018-11-03T23:58:13.864Z,20.86
